sensor_id;sensor_type;location;lat;lon;timestamp;P1;durP1;ratioP1;P2;durP2;ratioP2
21114;SDS011;10715;48.546;9.896;2023-05-14T00:00:38;3.90;;;3.50;;
21114;SDS011;10715;48.546;9.896;2023-05-14T00:03:04;3.53;;;3.30;;
21114;SDS011;10715;48.546;9.896;2023-05-14T00:05:29;3.37;;;2.87;;
21114;SDS011;10715;48.546;9.896;2023-05-14T00:07:55;2.10;;;1.90;;
21114;SDS011;10715;48.546;9.896;2023-05-14T00:10:21;4.80;;;3.40;;
21114;SDS011;10715;48.546;9.896;2023-05-14T00:12:47;3.43;;;3.13;;
21114;SDS011;10715;48.546;9.896;2023-05-14T00:15:13;3.93;;;3.10;;
21114;SDS011;10715;48.546;9.896;2023-05-14T00:17:38;3.30;;;3.10;;
21114;SDS011;10715;48.546;9.896;2023-05-14T00:20:04;3.40;;;3.10;;
21114;SDS011;10715;48.546;9.896;2023-05-14T00:22:33;3.47;;;3.27;;
21114;SDS011;10715;48.546;9.896;2023-05-14T00:25:01;3.10;;;2.90;;
21114;SDS011;10715;48.546;9.896;2023-05-14T00:27:27;3.70;;;3.40;;
21114;SDS011;10715;48.546;9.896;2023-05-14T00:29:52;3.17;;;2.90;;
21114;SDS011;10715;48.546;9.896;2023-05-14T00:32:18;2.47;;;2.27;;
21114;SDS011;10715;48.546;9.896;2023-05-14T00:34:44;3.17;;;2.97;;
21114;SDS011;10715;48.546;9.896;2023-05-14T00:37:09;3.10;;;1.90;;
21114;SDS011;10715;48.546;9.896;2023-05-14T00:39:35;7.20;;;2.70;;
21114;SDS011;10715;48.546;9.896;2023-05-14T00:42:01;2.33;;;2.13;;
21114;SDS011;10715;48.546;9.896;2023-05-14T00:44:26;3.60;;;2.67;;
21114;SDS011;10715;48.546;9.896;2023-05-14T00:46:52;3.80;;;2.43;;
21114;SDS011;10715;48.546;9.896;2023-05-14T00:49:18;2.90;;;2.03;;
21114;SDS011;10715;48.546;9.896;2023-05-14T00:51:45;3.07;;;2.77;;
21114;SDS011;10715;48.546;9.896;2023-05-14T00:54:15;7.47;;;3.30;;
21114;SDS011;10715;48.546;9.896;2023-05-14T00:56:44;2.63;;;2.43;;
21114;SDS011;10715;48.546;9.896;2023-05-14T00:59:10;2.33;;;2.13;;
21114;SDS011;10715;48.546;9.896;2023-05-14T01:01:37;3.60;;;3.30;;
21114;SDS011;10715;48.546;9.896;2023-05-14T01:04:03;3.10;;;2.73;;
21114;SDS011;10715;48.546;9.896;2023-05-14T01:11:41;2.93;;;2.73;;
21114;SDS011;10715;48.546;9.896;2023-05-14T01:14:20;2.80;;;2.60;;
21114;SDS011;10715;48.546;9.896;2023-05-14T01:16:58;4.20;;;3.70;;
21114;SDS011;10715;48.546;9.896;2023-05-14T01:19:40;2.93;;;2.70;;
21114;SDS011;10715;48.546;9.896;2023-05-14T01:22:07;2.77;;;2.57;;
21114;SDS011;10715;48.546;9.896;2023-05-14T01:24:33;2.70;;;2.50;;
21114;SDS011;10715;48.546;9.896;2023-05-14T01:27:45;3.20;;;2.90;;
21114;SDS011;10715;48.546;9.896;2023-05-14T01:29:58;3.10;;;2.80;;
21114;SDS011;10715;48.546;9.896;2023-05-14T01:32:43;9.67;;;4.70;;
21114;SDS011;10715;48.546;9.896;2023-05-14T01:35:12;3.43;;;2.97;;
21114;SDS011;10715;48.546;9.896;2023-05-14T01:37:39;2.50;;;2.30;;
21114;SDS011;10715;48.546;9.896;2023-05-14T01:40:06;2.90;;;2.70;;
21114;SDS011;10715;48.546;9.896;2023-05-14T01:42:33;2.63;;;2.37;;
21114;SDS011;10715;48.546;9.896;2023-05-14T01:45:00;2.03;;;1.87;;
21114;SDS011;10715;48.546;9.896;2023-05-14T01:47:26;2.90;;;2.70;;
21114;SDS011;10715;48.546;9.896;2023-05-14T01:49:52;2.67;;;2.47;;
21114;SDS011;10715;48.546;9.896;2023-05-14T01:52:17;7.70;;;3.37;;
21114;SDS011;10715;48.546;9.896;2023-05-14T01:54:45;2.50;;;2.27;;
21114;SDS011;10715;48.546;9.896;2023-05-14T01:57:11;3.80;;;2.63;;
21114;SDS011;10715;48.546;9.896;2023-05-14T01:59:37;6.30;;;2.47;;
21114;SDS011;10715;48.546;9.896;2023-05-14T02:02:03;2.60;;;2.40;;
21114;SDS011;10715;48.546;9.896;2023-05-14T02:04:28;3.40;;;3.10;;
21114;SDS011;10715;48.546;9.896;2023-05-14T02:06:54;3.40;;;2.63;;
21114;SDS011;10715;48.546;9.896;2023-05-14T02:09:20;4.83;;;2.90;;
21114;SDS011;10715;48.546;9.896;2023-05-14T02:11:45;3.70;;;3.40;;
21114;SDS011;10715;48.546;9.896;2023-05-14T02:14:11;2.90;;;2.70;;
21114;SDS011;10715;48.546;9.896;2023-05-14T02:16:42;3.10;;;2.90;;
21114;SDS011;10715;48.546;9.896;2023-05-14T02:19:07;4.17;;;3.63;;
21114;SDS011;10715;48.546;9.896;2023-05-14T02:21:33;3.33;;;3.07;;
21114;SDS011;10715;48.546;9.896;2023-05-14T02:23:59;12.20;;;6.97;;
21114;SDS011;10715;48.546;9.896;2023-05-14T02:26:25;11.47;;;9.40;;
21114;SDS011;10715;48.546;9.896;2023-05-14T02:28:50;17.27;;;11.57;;
21114;SDS011;10715;48.546;9.896;2023-05-14T02:31:16;17.40;;;12.20;;
21114;SDS011;10715;48.546;9.896;2023-05-14T02:33:43;13.10;;;10.87;;
21114;SDS011;10715;48.546;9.896;2023-05-14T02:36:09;16.23;;;11.00;;
21114;SDS011;10715;48.546;9.896;2023-05-14T02:38:35;11.27;;;8.67;;
21114;SDS011;10715;48.546;9.896;2023-05-14T02:41:00;10.83;;;8.13;;
21114;SDS011;10715;48.546;9.896;2023-05-14T02:43:26;6.93;;;5.37;;
21114;SDS011;10715;48.546;9.896;2023-05-14T02:45:52;6.40;;;5.30;;
21114;SDS011;10715;48.546;9.896;2023-05-14T02:48:17;4.67;;;4.20;;
21114;SDS011;10715;48.546;9.896;2023-05-14T02:50:43;5.07;;;4.57;;
21114;SDS011;10715;48.546;9.896;2023-05-14T02:53:09;4.57;;;4.00;;
21114;SDS011;10715;48.546;9.896;2023-05-14T02:55:35;9.83;;;4.40;;
21114;SDS011;10715;48.546;9.896;2023-05-14T02:58:01;7.07;;;5.20;;
21114;SDS011;10715;48.546;9.896;2023-05-14T03:00:27;9.97;;;7.47;;
21114;SDS011;10715;48.546;9.896;2023-05-14T03:02:52;13.93;;;7.90;;
21114;SDS011;10715;48.546;9.896;2023-05-14T03:05:18;13.97;;;7.57;;
21114;SDS011;10715;48.546;9.896;2023-05-14T03:07:44;11.43;;;7.80;;
21114;SDS011;10715;48.546;9.896;2023-05-14T03:10:09;11.43;;;8.13;;
21114;SDS011;10715;48.546;9.896;2023-05-14T03:12:36;10.43;;;6.57;;
21114;SDS011;10715;48.546;9.896;2023-05-14T03:15:01;13.23;;;8.50;;
21114;SDS011;10715;48.546;9.896;2023-05-14T03:17:27;13.97;;;10.33;;
21114;SDS011;10715;48.546;9.896;2023-05-14T03:19:53;16.67;;;9.40;;
21114;SDS011;10715;48.546;9.896;2023-05-14T03:22:19;9.20;;;8.40;;
21114;SDS011;10715;48.546;9.896;2023-05-14T03:24:44;14.17;;;10.10;;
21114;SDS011;10715;48.546;9.896;2023-05-14T03:27:10;14.10;;;9.33;;
21114;SDS011;10715;48.546;9.896;2023-05-14T03:29:36;12.47;;;8.60;;
21114;SDS011;10715;48.546;9.896;2023-05-14T03:32:01;14.80;;;8.70;;
21114;SDS011;10715;48.546;9.896;2023-05-14T03:34:27;12.23;;;8.90;;
21114;SDS011;10715;48.546;9.896;2023-05-14T03:36:53;15.83;;;9.50;;
21114;SDS011;10715;48.546;9.896;2023-05-14T03:39:19;17.97;;;11.93;;
21114;SDS011;10715;48.546;9.896;2023-05-14T03:41:45;16.97;;;9.70;;
21114;SDS011;10715;48.546;9.896;2023-05-14T03:44:11;11.80;;;10.60;;
21114;SDS011;10715;48.546;9.896;2023-05-14T03:46:37;15.33;;;9.43;;
21114;SDS011;10715;48.546;9.896;2023-05-14T03:49:03;18.30;;;10.20;;
21114;SDS011;10715;48.546;9.896;2023-05-14T03:51:29;12.07;;;9.00;;
21114;SDS011;10715;48.546;9.896;2023-05-14T03:53:55;12.63;;;8.13;;
21114;SDS011;10715;48.546;9.896;2023-05-14T03:56:22;13.20;;;9.27;;
21114;SDS011;10715;48.546;9.896;2023-05-14T03:58:48;12.90;;;8.50;;
21114;SDS011;10715;48.546;9.896;2023-05-14T04:01:14;19.30;;;10.67;;
21114;SDS011;10715;48.546;9.896;2023-05-14T04:03:40;16.33;;;10.00;;
21114;SDS011;10715;48.546;9.896;2023-05-14T04:06:05;13.33;;;9.17;;
21114;SDS011;10715;48.546;9.896;2023-05-14T04:08:31;12.37;;;9.40;;
21114;SDS011;10715;48.546;9.896;2023-05-14T04:10:57;15.60;;;10.40;;
21114;SDS011;10715;48.546;9.896;2023-05-14T04:13:22;12.60;;;8.73;;
21114;SDS011;10715;48.546;9.896;2023-05-14T04:15:48;13.40;;;8.17;;
21114;SDS011;10715;48.546;9.896;2023-05-14T04:18:14;11.93;;;8.50;;
21114;SDS011;10715;48.546;9.896;2023-05-14T04:20:41;9.70;;;6.70;;
21114;SDS011;10715;48.546;9.896;2023-05-14T04:23:06;11.70;;;9.40;;
21114;SDS011;10715;48.546;9.896;2023-05-14T04:25:32;9.03;;;7.90;;
21114;SDS011;10715;48.546;9.896;2023-05-14T04:27:58;14.40;;;8.87;;
21114;SDS011;10715;48.546;9.896;2023-05-14T04:30:23;12.17;;;9.80;;
21114;SDS011;10715;48.546;9.896;2023-05-14T04:32:50;13.83;;;9.77;;
21114;SDS011;10715;48.546;9.896;2023-05-14T04:35:16;17.13;;;8.50;;
21114;SDS011;10715;48.546;9.896;2023-05-14T04:37:41;16.33;;;8.30;;
21114;SDS011;10715;48.546;9.896;2023-05-14T04:40:07;15.10;;;10.43;;
21114;SDS011;10715;48.546;9.896;2023-05-14T04:42:35;11.37;;;8.47;;
21114;SDS011;10715;48.546;9.896;2023-05-14T04:45:01;13.73;;;9.37;;
21114;SDS011;10715;48.546;9.896;2023-05-14T04:47:29;14.30;;;9.47;;
21114;SDS011;10715;48.546;9.896;2023-05-14T04:49:55;17.57;;;10.43;;
21114;SDS011;10715;48.546;9.896;2023-05-14T04:52:21;17.67;;;11.07;;
21114;SDS011;10715;48.546;9.896;2023-05-14T04:54:48;15.23;;;10.33;;
21114;SDS011;10715;48.546;9.896;2023-05-14T04:57:14;15.63;;;9.83;;
21114;SDS011;10715;48.546;9.896;2023-05-14T04:59:39;13.77;;;9.93;;
21114;SDS011;10715;48.546;9.896;2023-05-14T05:02:05;26.63;;;10.20;;
21114;SDS011;10715;48.546;9.896;2023-05-14T05:04:31;14.93;;;9.57;;
21114;SDS011;10715;48.546;9.896;2023-05-14T05:06:57;15.43;;;10.73;;
21114;SDS011;10715;48.546;9.896;2023-05-14T05:09:22;10.93;;;9.10;;
21114;SDS011;10715;48.546;9.896;2023-05-14T05:11:48;16.10;;;9.10;;
21114;SDS011;10715;48.546;9.896;2023-05-14T05:14:14;12.37;;;9.30;;
21114;SDS011;10715;48.546;9.896;2023-05-14T05:16:39;25.03;;;12.20;;
21114;SDS011;10715;48.546;9.896;2023-05-14T05:19:05;18.30;;;10.50;;
21114;SDS011;10715;48.546;9.896;2023-05-14T05:21:33;16.50;;;12.53;;
21114;SDS011;10715;48.546;9.896;2023-05-14T05:23:59;16.03;;;10.60;;
21114;SDS011;10715;48.546;9.896;2023-05-14T05:26:25;15.63;;;10.73;;
21114;SDS011;10715;48.546;9.896;2023-05-14T05:28:52;17.43;;;11.17;;
21114;SDS011;10715;48.546;9.896;2023-05-14T05:31:17;12.40;;;9.80;;
21114;SDS011;10715;48.546;9.896;2023-05-14T05:33:43;16.43;;;10.53;;
21114;SDS011;10715;48.546;9.896;2023-05-14T05:36:09;13.27;;;10.67;;
21114;SDS011;10715;48.546;9.896;2023-05-14T05:38:35;19.00;;;10.40;;
21114;SDS011;10715;48.546;9.896;2023-05-14T05:41:01;11.67;;;8.87;;
21114;SDS011;10715;48.546;9.896;2023-05-14T05:43:26;21.20;;;12.13;;
21114;SDS011;10715;48.546;9.896;2023-05-14T05:45:52;16.37;;;10.47;;
21114;SDS011;10715;48.546;9.896;2023-05-14T05:48:18;14.23;;;9.67;;
21114;SDS011;10715;48.546;9.896;2023-05-14T05:50:45;17.07;;;9.77;;
21114;SDS011;10715;48.546;9.896;2023-05-14T05:53:16;25.53;;;15.23;;
21114;SDS011;10715;48.546;9.896;2023-05-14T05:55:41;20.30;;;10.50;;
21114;SDS011;10715;48.546;9.896;2023-05-14T05:58:07;16.77;;;11.10;;
21114;SDS011;10715;48.546;9.896;2023-05-14T06:00:33;15.00;;;10.93;;
21114;SDS011;10715;48.546;9.896;2023-05-14T06:02:58;16.10;;;11.60;;
21114;SDS011;10715;48.546;9.896;2023-05-14T06:05:25;17.77;;;12.10;;
21114;SDS011;10715;48.546;9.896;2023-05-14T06:07:50;16.00;;;12.33;;
21114;SDS011;10715;48.546;9.896;2023-05-14T06:10:17;21.03;;;12.17;;
21114;SDS011;10715;48.546;9.896;2023-05-14T06:12:43;20.20;;;12.57;;
21114;SDS011;10715;48.546;9.896;2023-05-14T06:15:09;16.70;;;11.67;;
21114;SDS011;10715;48.546;9.896;2023-05-14T06:17:36;21.83;;;13.27;;
21114;SDS011;10715;48.546;9.896;2023-05-14T06:20:02;21.23;;;11.77;;
21114;SDS011;10715;48.546;9.896;2023-05-14T06:22:32;16.23;;;10.60;;
21114;SDS011;10715;48.546;9.896;2023-05-14T06:24:58;15.17;;;10.60;;
21114;SDS011;10715;48.546;9.896;2023-05-14T06:27:23;23.57;;;10.67;;
21114;SDS011;10715;48.546;9.896;2023-05-14T06:29:49;14.00;;;9.93;;
21114;SDS011;10715;48.546;9.896;2023-05-14T06:32:15;15.90;;;10.63;;
21114;SDS011;10715;48.546;9.896;2023-05-14T06:34:41;11.80;;;9.60;;
21114;SDS011;10715;48.546;9.896;2023-05-14T06:37:07;16.67;;;10.40;;
21114;SDS011;10715;48.546;9.896;2023-05-14T06:39:34;19.00;;;11.80;;
21114;SDS011;10715;48.546;9.896;2023-05-14T06:42:01;19.87;;;13.40;;
21114;SDS011;10715;48.546;9.896;2023-05-14T06:44:27;14.37;;;10.20;;
21114;SDS011;10715;48.546;9.896;2023-05-14T06:46:53;14.40;;;9.67;;
21114;SDS011;10715;48.546;9.896;2023-05-14T06:49:19;11.77;;;8.63;;
21114;SDS011;10715;48.546;9.896;2023-05-14T06:51:45;14.47;;;9.87;;
21114;SDS011;10715;48.546;9.896;2023-05-14T06:54:11;15.37;;;9.67;;
21114;SDS011;10715;48.546;9.896;2023-05-14T06:56:37;11.93;;;8.63;;
21114;SDS011;10715;48.546;9.896;2023-05-14T06:59:02;9.27;;;8.30;;
21114;SDS011;10715;48.546;9.896;2023-05-14T07:01:28;11.10;;;9.93;;
21114;SDS011;10715;48.546;9.896;2023-05-14T07:03:54;8.03;;;6.80;;
21114;SDS011;10715;48.546;9.896;2023-05-14T07:06:21;14.30;;;7.27;;
21114;SDS011;10715;48.546;9.896;2023-05-14T07:08:47;9.30;;;6.97;;
21114;SDS011;10715;48.546;9.896;2023-05-14T07:11:13;8.50;;;6.90;;
21114;SDS011;10715;48.546;9.896;2023-05-14T07:13:39;9.87;;;6.70;;
21114;SDS011;10715;48.546;9.896;2023-05-14T07:16:06;8.53;;;6.93;;
21114;SDS011;10715;48.546;9.896;2023-05-14T07:18:35;9.37;;;6.90;;
21114;SDS011;10715;48.546;9.896;2023-05-14T07:21:01;10.10;;;7.23;;
21114;SDS011;10715;48.546;9.896;2023-05-14T07:23:26;8.80;;;6.77;;
21114;SDS011;10715;48.546;9.896;2023-05-14T07:25:52;9.70;;;7.47;;
21114;SDS011;10715;48.546;9.896;2023-05-14T07:28:19;7.43;;;6.33;;
21114;SDS011;10715;48.546;9.896;2023-05-14T07:30:44;12.30;;;10.03;;
21114;SDS011;10715;48.546;9.896;2023-05-14T07:33:10;7.10;;;6.50;;
21114;SDS011;10715;48.546;9.896;2023-05-14T07:35:36;7.30;;;5.60;;
21114;SDS011;10715;48.546;9.896;2023-05-14T07:38:01;10.93;;;6.33;;
21114;SDS011;10715;48.546;9.896;2023-05-14T07:40:29;6.37;;;5.43;;
21114;SDS011;10715;48.546;9.896;2023-05-14T07:42:55;6.20;;;5.07;;
21114;SDS011;10715;48.546;9.896;2023-05-14T07:45:21;10.40;;;6.80;;
21114;SDS011;10715;48.546;9.896;2023-05-14T07:47:46;6.67;;;5.33;;
21114;SDS011;10715;48.546;9.896;2023-05-14T07:50:16;7.03;;;6.40;;
21114;SDS011;10715;48.546;9.896;2023-05-14T07:52:43;11.13;;;5.87;;
21114;SDS011;10715;48.546;9.896;2023-05-14T07:55:09;6.20;;;5.60;;
21114;SDS011;10715;48.546;9.896;2023-05-14T07:57:35;7.60;;;6.30;;
21114;SDS011;10715;48.546;9.896;2023-05-14T08:00:01;6.30;;;5.50;;
21114;SDS011;10715;48.546;9.896;2023-05-14T08:02:28;5.73;;;5.30;;
21114;SDS011;10715;48.546;9.896;2023-05-14T08:04:54;5.60;;;4.70;;
21114;SDS011;10715;48.546;9.896;2023-05-14T08:07:19;7.83;;;6.50;;
21114;SDS011;10715;48.546;9.896;2023-05-14T08:09:45;8.27;;;6.87;;
21114;SDS011;10715;48.546;9.896;2023-05-14T08:12:11;6.07;;;5.47;;
21114;SDS011;10715;48.546;9.896;2023-05-14T08:14:37;8.20;;;5.53;;
21114;SDS011;10715;48.546;9.896;2023-05-14T08:17:03;6.23;;;4.97;;
21114;SDS011;10715;48.546;9.896;2023-05-14T08:19:28;6.33;;;5.40;;
21114;SDS011;10715;48.546;9.896;2023-05-14T08:21:54;7.27;;;4.87;;
21114;SDS011;10715;48.546;9.896;2023-05-14T08:24:20;6.00;;;5.40;;
21114;SDS011;10715;48.546;9.896;2023-05-14T08:26:46;6.37;;;5.67;;
21114;SDS011;10715;48.546;9.896;2023-05-14T08:29:11;8.93;;;5.97;;
21114;SDS011;10715;48.546;9.896;2023-05-14T08:31:37;5.20;;;4.80;;
21114;SDS011;10715;48.546;9.896;2023-05-14T08:34:03;6.37;;;5.77;;
21114;SDS011;10715;48.546;9.896;2023-05-14T08:36:28;6.67;;;5.80;;
21114;SDS011;10715;48.546;9.896;2023-05-14T08:38:55;7.40;;;6.70;;
21114;SDS011;10715;48.546;9.896;2023-05-14T08:41:21;5.20;;;4.60;;
21114;SDS011;10715;48.546;9.896;2023-05-14T08:46:30;9.00;;;6.07;;
21114;SDS011;10715;48.546;9.896;2023-05-14T08:49:04;9.13;;;6.90;;
21114;SDS011;10715;48.546;9.896;2023-05-14T08:51:47;8.17;;;7.30;;
21114;SDS011;10715;48.546;9.896;2023-05-14T08:54:16;6.63;;;5.87;;
21114;SDS011;10715;48.546;9.896;2023-05-14T08:56:45;8.33;;;6.97;;
21114;SDS011;10715;48.546;9.896;2023-05-14T08:59:11;8.70;;;6.07;;
21114;SDS011;10715;48.546;9.896;2023-05-14T09:01:37;8.20;;;6.50;;
21114;SDS011;10715;48.546;9.896;2023-05-14T09:04:04;8.80;;;6.70;;
21114;SDS011;10715;48.546;9.896;2023-05-14T09:06:34;7.70;;;6.53;;
21114;SDS011;10715;48.546;9.896;2023-05-14T09:09:02;6.63;;;6.00;;
21114;SDS011;10715;48.546;9.896;2023-05-14T09:11:28;6.43;;;5.77;;
21114;SDS011;10715;48.546;9.896;2023-05-14T09:13:54;7.43;;;6.73;;
21114;SDS011;10715;48.546;9.896;2023-05-14T09:16:20;9.73;;;8.60;;
21114;SDS011;10715;48.546;9.896;2023-05-14T09:18:46;7.40;;;6.60;;
21114;SDS011;10715;48.546;9.896;2023-05-14T09:21:12;5.73;;;5.23;;
21114;SDS011;10715;48.546;9.896;2023-05-14T09:23:40;7.07;;;6.30;;
21114;SDS011;10715;48.546;9.896;2023-05-14T09:26:10;6.63;;;5.90;;
21114;SDS011;10715;48.546;9.896;2023-05-14T09:28:40;8.60;;;7.50;;
21114;SDS011;10715;48.546;9.896;2023-05-14T09:31:08;7.80;;;6.97;;
21114;SDS011;10715;48.546;9.896;2023-05-14T09:33:34;10.27;;;7.37;;
21114;SDS011;10715;48.546;9.896;2023-05-14T09:36:01;9.17;;;8.27;;
21114;SDS011;10715;48.546;9.896;2023-05-14T09:38:30;11.67;;;7.67;;
21114;SDS011;10715;48.546;9.896;2023-05-14T09:40:57;7.03;;;6.33;;
21114;SDS011;10715;48.546;9.896;2023-05-14T09:43:24;8.23;;;7.20;;
21114;SDS011;10715;48.546;9.896;2023-05-14T09:45:51;8.83;;;7.23;;
21114;SDS011;10715;48.546;9.896;2023-05-14T09:48:17;7.63;;;7.00;;
21114;SDS011;10715;48.546;9.896;2023-05-14T09:50:46;10.27;;;8.90;;
21114;SDS011;10715;48.546;9.896;2023-05-14T09:53:12;6.70;;;6.00;;
21114;SDS011;10715;48.546;9.896;2023-05-14T09:55:38;8.73;;;7.93;;
21114;SDS011;10715;48.546;9.896;2023-05-14T09:58:04;7.40;;;5.90;;
21114;SDS011;10715;48.546;9.896;2023-05-14T10:00:30;6.63;;;5.80;;
21114;SDS011;10715;48.546;9.896;2023-05-14T10:02:57;6.37;;;5.87;;
21114;SDS011;10715;48.546;9.896;2023-05-14T10:05:28;8.20;;;7.00;;
21114;SDS011;10715;48.546;9.896;2023-05-14T10:07:55;7.37;;;5.57;;
21114;SDS011;10715;48.546;9.896;2023-05-14T10:10:23;6.17;;;5.63;;
21114;SDS011;10715;48.546;9.896;2023-05-14T10:12:56;6.10;;;5.60;;
21114;SDS011;10715;48.546;9.896;2023-05-14T10:18:23;4.57;;;4.20;;
21114;SDS011;10715;48.546;9.896;2023-05-14T10:21:04;5.37;;;4.93;;
21114;SDS011;10715;48.546;9.896;2023-05-14T10:23:31;7.87;;;5.30;;
21114;SDS011;10715;48.546;9.896;2023-05-14T10:25:58;4.00;;;3.60;;
21114;SDS011;10715;48.546;9.896;2023-05-14T10:28:24;4.87;;;4.40;;
21114;SDS011;10715;48.546;9.896;2023-05-14T10:30:52;5.10;;;4.03;;
21114;SDS011;10715;48.546;9.896;2023-05-14T10:33:18;4.13;;;3.57;;
21114;SDS011;10715;48.546;9.896;2023-05-14T10:35:55;5.57;;;4.50;;
21114;SDS011;10715;48.546;9.896;2023-05-14T10:38:41;4.30;;;4.00;;
21114;SDS011;10715;48.546;9.896;2023-05-14T10:41:11;4.03;;;3.70;;
21114;SDS011;10715;48.546;9.896;2023-05-14T10:43:42;4.57;;;4.17;;
21114;SDS011;10715;48.546;9.896;2023-05-14T10:46:08;3.40;;;3.10;;
21114;SDS011;10715;48.546;9.896;2023-05-14T10:48:36;4.37;;;3.20;;
21114;SDS011;10715;48.546;9.896;2023-05-14T10:51:03;6.00;;;2.67;;
21114;SDS011;10715;48.546;9.896;2023-05-14T10:53:33;3.13;;;2.83;;
21114;SDS011;10715;48.546;9.896;2023-05-14T10:56:02;2.37;;;2.17;;
21114;SDS011;10715;48.546;9.896;2023-05-14T10:58:29;3.53;;;3.33;;
21114;SDS011;10715;48.546;9.896;2023-05-14T11:00:58;2.83;;;2.63;;
21114;SDS011;10715;48.546;9.896;2023-05-14T11:03:28;2.80;;;2.60;;
21114;SDS011;10715;48.546;9.896;2023-05-14T11:05:55;3.73;;;3.07;;
21114;SDS011;10715;48.546;9.896;2023-05-14T11:08:21;2.63;;;2.40;;
21114;SDS011;10715;48.546;9.896;2023-05-14T11:10:47;2.50;;;2.20;;
21114;SDS011;10715;48.546;9.896;2023-05-14T11:13:14;2.70;;;2.50;;
21114;SDS011;10715;48.546;9.896;2023-05-14T11:15:42;3.20;;;3.00;;
21114;SDS011;10715;48.546;9.896;2023-05-14T11:18:12;3.63;;;2.80;;
21114;SDS011;10715;48.546;9.896;2023-05-14T11:20:37;3.60;;;2.40;;
21114;SDS011;10715;48.546;9.896;2023-05-14T11:23:03;2.87;;;2.67;;
21114;SDS011;10715;48.546;9.896;2023-05-14T11:25:29;3.03;;;2.70;;
21114;SDS011;10715;48.546;9.896;2023-05-14T11:27:55;2.27;;;2.07;;
21114;SDS011;10715;48.546;9.896;2023-05-14T11:30:23;2.40;;;2.03;;
21114;SDS011;10715;48.546;9.896;2023-05-14T11:32:49;4.60;;;2.97;;
21114;SDS011;10715;48.546;9.896;2023-05-14T11:35:15;2.70;;;2.50;;
21114;SDS011;10715;48.546;9.896;2023-05-14T11:37:42;2.23;;;2.13;;
21114;SDS011;10715;48.546;9.896;2023-05-14T11:40:14;2.60;;;2.40;;
21114;SDS011;10715;48.546;9.896;2023-05-14T11:42:42;2.67;;;1.40;;
21114;SDS011;10715;48.546;9.896;2023-05-14T11:45:12;3.87;;;2.07;;
21114;SDS011;10715;48.546;9.896;2023-05-14T11:47:39;2.27;;;1.80;;
21114;SDS011;10715;48.546;9.896;2023-05-14T11:50:06;2.33;;;1.73;;
21114;SDS011;10715;48.546;9.896;2023-05-14T11:52:36;2.50;;;2.30;;
21114;SDS011;10715;48.546;9.896;2023-05-14T11:55:06;1.73;;;1.63;;
21114;SDS011;10715;48.546;9.896;2023-05-14T11:57:35;1.93;;;1.80;;
21114;SDS011;10715;48.546;9.896;2023-05-14T12:00:01;2.90;;;1.77;;
21114;SDS011;10715;48.546;9.896;2023-05-14T12:02:29;2.10;;;1.90;;
21114;SDS011;10715;48.546;9.896;2023-05-14T12:04:55;2.27;;;1.50;;
21114;SDS011;10715;48.546;9.896;2023-05-14T12:07:21;2.27;;;2.07;;
21114;SDS011;10715;48.546;9.896;2023-05-14T12:09:47;1.33;;;1.13;;
21114;SDS011;10715;48.546;9.896;2023-05-14T12:12:14;2.60;;;2.00;;
21114;SDS011;10715;48.546;9.896;2023-05-14T12:14:43;2.30;;;2.10;;
21114;SDS011;10715;48.546;9.896;2023-05-14T12:19:39;3.30;;;1.60;;
21114;SDS011;10715;48.546;9.896;2023-05-14T12:22:07;1.60;;;1.50;;
21114;SDS011;10715;48.546;9.896;2023-05-14T12:24:33;1.50;;;1.23;;
21114;SDS011;10715;48.546;9.896;2023-05-14T12:27:00;1.83;;;1.60;;
21114;SDS011;10715;48.546;9.896;2023-05-14T12:29:26;5.73;;;1.40;;
21114;SDS011;10715;48.546;9.896;2023-05-14T12:31:52;3.17;;;2.00;;
21114;SDS011;10715;48.546;9.896;2023-05-14T12:34:17;2.80;;;2.47;;
21114;SDS011;10715;48.546;9.896;2023-05-14T12:36:43;2.57;;;2.37;;
21114;SDS011;10715;48.546;9.896;2023-05-14T12:39:09;3.00;;;2.80;;
21114;SDS011;10715;48.546;9.896;2023-05-14T12:41:36;2.67;;;2.47;;
21114;SDS011;10715;48.546;9.896;2023-05-14T12:44:02;2.80;;;2.60;;
21114;SDS011;10715;48.546;9.896;2023-05-14T12:46:29;6.27;;;4.43;;
21114;SDS011;10715;48.546;9.896;2023-05-14T12:48:55;4.63;;;3.67;;
21114;SDS011;10715;48.546;9.896;2023-05-14T12:51:21;4.40;;;3.00;;
21114;SDS011;10715;48.546;9.896;2023-05-14T12:53:49;2.90;;;2.57;;
21114;SDS011;10715;48.546;9.896;2023-05-14T12:56:16;3.00;;;2.50;;
21114;SDS011;10715;48.546;9.896;2023-05-14T12:58:41;3.97;;;3.67;;
21114;SDS011;10715;48.546;9.896;2023-05-14T13:01:07;3.37;;;3.07;;
21114;SDS011;10715;48.546;9.896;2023-05-14T13:03:33;4.63;;;3.00;;
21114;SDS011;10715;48.546;9.896;2023-05-14T13:05:59;16.47;;;3.43;;
21114;SDS011;10715;48.546;9.896;2023-05-14T13:08:25;4.10;;;2.70;;
21114;SDS011;10715;48.546;9.896;2023-05-14T13:10:54;3.13;;;2.93;;
21114;SDS011;10715;48.546;9.896;2023-05-14T13:13:21;47.93;;;23.43;;
21114;SDS011;10715;48.546;9.896;2023-05-14T13:15:47;3.50;;;3.30;;
21114;SDS011;10715;48.546;9.896;2023-05-14T13:18:13;2.07;;;1.53;;
21114;SDS011;10715;48.546;9.896;2023-05-14T13:20:40;3.80;;;2.80;;
21114;SDS011;10715;48.546;9.896;2023-05-14T13:23:06;4.27;;;2.10;;
21114;SDS011;10715;48.546;9.896;2023-05-14T13:25:31;1.33;;;1.00;;
21114;SDS011;10715;48.546;9.896;2023-05-14T13:27:57;7.70;;;3.23;;
21114;SDS011;10715;48.546;9.896;2023-05-14T13:30:23;1.90;;;1.77;;
21114;SDS011;10715;48.546;9.896;2023-05-14T13:32:49;4.60;;;1.93;;
21114;SDS011;10715;48.546;9.896;2023-05-14T13:35:15;4.40;;;2.30;;
21114;SDS011;10715;48.546;9.896;2023-05-14T13:37:44;2.67;;;2.13;;
21114;SDS011;10715;48.546;9.896;2023-05-14T13:40:11;30.57;;;9.30;;
21114;SDS011;10715;48.546;9.896;2023-05-14T13:42:37;6.73;;;4.00;;
21114;SDS011;10715;48.546;9.896;2023-05-14T13:45:04;3.10;;;2.90;;
21114;SDS011;10715;48.546;9.896;2023-05-14T13:47:30;2.00;;;1.90;;
21114;SDS011;10715;48.546;9.896;2023-05-14T13:49:56;1.97;;;1.77;;
21114;SDS011;10715;48.546;9.896;2023-05-14T13:52:22;2.90;;;1.63;;
21114;SDS011;10715;48.546;9.896;2023-05-14T13:54:48;2.77;;;2.57;;
21114;SDS011;10715;48.546;9.896;2023-05-14T13:57:14;4.60;;;3.57;;
21114;SDS011;10715;48.546;9.896;2023-05-14T13:59:40;3.00;;;2.63;;
21114;SDS011;10715;48.546;9.896;2023-05-14T14:02:06;5.93;;;2.90;;
21114;SDS011;10715;48.546;9.896;2023-05-14T14:04:32;4.33;;;4.03;;
21114;SDS011;10715;48.546;9.896;2023-05-14T14:06:58;2.73;;;2.50;;
21114;SDS011;10715;48.546;9.896;2023-05-14T14:09:24;5.07;;;4.47;;
21114;SDS011;10715;48.546;9.896;2023-05-14T14:11:49;4.40;;;4.00;;
21114;SDS011;10715;48.546;9.896;2023-05-14T14:14:15;5.43;;;4.00;;
21114;SDS011;10715;48.546;9.896;2023-05-14T14:16:42;5.27;;;4.90;;
21114;SDS011;10715;48.546;9.896;2023-05-14T14:19:07;4.43;;;4.03;;
21114;SDS011;10715;48.546;9.896;2023-05-14T14:21:34;5.40;;;5.00;;
21114;SDS011;10715;48.546;9.896;2023-05-14T14:24:00;5.23;;;3.97;;
21114;SDS011;10715;48.546;9.896;2023-05-14T14:26:26;6.50;;;5.83;;
21114;SDS011;10715;48.546;9.896;2023-05-14T14:28:53;8.97;;;6.73;;
21114;SDS011;10715;48.546;9.896;2023-05-14T14:31:19;5.80;;;3.97;;
21114;SDS011;10715;48.546;9.896;2023-05-14T14:33:44;3.20;;;2.90;;
21114;SDS011;10715;48.546;9.896;2023-05-14T14:36:10;4.30;;;2.70;;
21114;SDS011;10715;48.546;9.896;2023-05-14T14:38:36;3.73;;;2.80;;
21114;SDS011;10715;48.546;9.896;2023-05-14T14:41:03;2.90;;;2.70;;
21114;SDS011;10715;48.546;9.896;2023-05-14T14:43:32;4.80;;;3.60;;
21114;SDS011;10715;48.546;9.896;2023-05-14T14:45:58;3.37;;;3.07;;
21114;SDS011;10715;48.546;9.896;2023-05-14T14:48:25;3.30;;;3.10;;
21114;SDS011;10715;48.546;9.896;2023-05-14T14:51:05;3.10;;;2.90;;